sensor_id;sensor_type;location;lat;lon;timestamp;pressure;altitude;pressure_sealevel;temperature;humidity
7930;BME280;4010;42.698;23.124;2023-05-11T00:00:36;118349.16;;;-140.64;100.00
7930;BME280;4010;42.698;23.124;2023-05-11T00:03:03;118349.16;;;-140.64;100.00
7930;BME280;4010;42.698;23.124;2023-05-11T00:05:30;118349.16;;;-140.64;100.00
7930;BME280;4010;42.698;23.124;2023-05-11T00:07:58;118349.16;;;-140.64;100.00
7930;BME280;4010;42.698;23.124;2023-05-11T00:10:25;118349.16;;;-140.64;100.00
7930;BME280;4010;42.698;23.124;2023-05-11T00:12:53;118349.16;;;-140.64;100.00
7930;BME280;4010;42.698;23.124;2023-05-11T00:15:19;118349.16;;;-140.64;100.00
7930;BME280;4010;42.698;23.124;2023-05-11T00:17:46;118349.16;;;-140.64;100.00
7930;BME280;4010;42.698;23.124;2023-05-11T00:20:13;118349.16;;;-140.64;100.00
7930;BME280;4010;42.698;23.124;2023-05-11T00:22:39;118349.16;;;-140.64;100.00
7930;BME280;4010;42.698;23.124;2023-05-11T00:25:08;118349.16;;;-140.64;100.00
7930;BME280;4010;42.698;23.124;2023-05-11T00:27:35;118349.16;;;-140.64;100.00
7930;BME280;4010;42.698;23.124;2023-05-11T00:30:02;118349.16;;;-140.64;100.00
7930;BME280;4010;42.698;23.124;2023-05-11T00:32:28;118349.16;;;-140.64;100.00
7930;BME280;4010;42.698;23.124;2023-05-11T00:34:55;118349.16;;;-140.64;100.00
7930;BME280;4010;42.698;23.124;2023-05-11T00:37:22;118349.16;;;-140.64;100.00
7930;BME280;4010;42.698;23.124;2023-05-11T00:39:48;118349.16;;;-140.64;100.00
7930;BME280;4010;42.698;23.124;2023-05-11T00:42:16;118349.16;;;-140.64;100.00
7930;BME280;4010;42.698;23.124;2023-05-11T00:44:43;118349.16;;;-140.64;100.00
7930;BME280;4010;42.698;23.124;2023-05-11T00:47:10;118349.16;;;-140.64;100.00
7930;BME280;4010;42.698;23.124;2023-05-11T00:49:36;118349.16;;;-140.64;100.00
7930;BME280;4010;42.698;23.124;2023-05-11T00:52:04;118349.16;;;-140.64;100.00
7930;BME280;4010;42.698;23.124;2023-05-11T00:54:30;118349.16;;;-140.64;100.00
7930;BME280;4010;42.698;23.124;2023-05-11T00:56:57;118349.16;;;-140.64;100.00
7930;BME280;4010;42.698;23.124;2023-05-11T00:59:25;118349.16;;;-140.64;100.00
7930;BME280;4010;42.698;23.124;2023-05-11T01:01:52;118349.16;;;-140.64;100.00
7930;BME280;4010;42.698;23.124;2023-05-11T01:04:19;118349.16;;;-140.64;100.00
7930;BME280;4010;42.698;23.124;2023-05-11T01:06:51;118349.16;;;-140.64;100.00
7930;BME280;4010;42.698;23.124;2023-05-11T01:09:29;118349.16;;;-140.64;100.00
7930;BME280;4010;42.698;23.124;2023-05-11T01:12:07;118349.16;;;-140.64;100.00
7930;BME280;4010;42.698;23.124;2023-05-11T01:14:41;118349.16;;;-140.64;100.00
7930;BME280;4010;42.698;23.124;2023-05-11T01:17:17;118349.16;;;-140.64;100.00
7930;BME280;4010;42.698;23.124;2023-05-11T01:19:49;118349.16;;;-140.64;100.00
7930;BME280;4010;42.698;23.124;2023-05-11T01:22:27;118349.16;;;-140.64;100.00
7930;BME280;4010;42.698;23.124;2023-05-11T01:25:05;118349.16;;;-140.64;100.00
7930;BME280;4010;42.698;23.124;2023-05-11T01:27:53;118349.16;;;-140.64;100.00
7930;BME280;4010;42.698;23.124;2023-05-11T01:30:28;118349.16;;;-140.64;100.00
7930;BME280;4010;42.698;23.124;2023-05-11T01:32:59;118349.16;;;-140.64;100.00
7930;BME280;4010;42.698;23.124;2023-05-11T01:35:31;118349.16;;;-140.64;100.00
7930;BME280;4010;42.698;23.124;2023-05-11T01:38:00;118349.16;;;-140.64;100.00
7930;BME280;4010;42.698;23.124;2023-05-11T01:40:31;118349.16;;;-140.64;100.00
7930;BME280;4010;42.698;23.124;2023-05-11T01:43:03;118349.16;;;-140.64;100.00
7930;BME280;4010;42.698;23.124;2023-05-11T01:45:33;118349.16;;;-140.64;100.00
7930;BME280;4010;42.698;23.124;2023-05-11T01:48:04;118349.16;;;-140.64;100.00
7930;BME280;4010;42.698;23.124;2023-05-11T01:50:32;118349.16;;;-140.64;100.00
7930;BME280;4010;42.698;23.124;2023-05-11T01:53:01;118349.16;;;-140.64;100.00
7930;BME280;4010;42.698;23.124;2023-05-11T01:55:31;118349.16;;;-140.64;100.00
7930;BME280;4010;42.698;23.124;2023-05-11T01:58:00;118349.16;;;-140.64;100.00
7930;BME280;4010;42.698;23.124;2023-05-11T02:00:29;118349.16;;;-140.64;100.00
7930;BME280;4010;42.698;23.124;2023-05-11T02:02:58;118349.16;;;-140.64;100.00
7930;BME280;4010;42.698;23.124;2023-05-11T02:05:28;118349.16;;;-140.64;100.00
7930;BME280;4010;42.698;23.124;2023-05-11T02:07:57;118349.16;;;-140.64;100.00
7930;BME280;4010;42.698;23.124;2023-05-11T02:10:25;118349.16;;;-140.64;100.00
7930;BME280;4010;42.698;23.124;2023-05-11T02:12:52;118349.16;;;-140.64;100.00
7930;BME280;4010;42.698;23.124;2023-05-11T02:15:21;118349.16;;;-140.64;100.00
7930;BME280;4010;42.698;23.124;2023-05-11T02:17:49;118349.16;;;-140.64;100.00
7930;BME280;4010;42.698;23.124;2023-05-11T02:20:18;118349.16;;;-140.64;100.00
7930;BME280;4010;42.698;23.124;2023-05-11T02:22:46;118349.16;;;-140.64;100.00
7930;BME280;4010;42.698;23.124;2023-05-11T02:25:13;118349.16;;;-140.64;100.00
7930;BME280;4010;42.698;23.124;2023-05-11T02:27:40;118349.16;;;-140.64;100.00
7930;BME280;4010;42.698;23.124;2023-05-11T02:30:08;118349.16;;;-140.64;100.00
7930;BME280;4010;42.698;23.124;2023-05-11T02:32:38;118349.16;;;-140.64;100.00
7930;BME280;4010;42.698;23.124;2023-05-11T02:35:15;118349.16;;;-140.64;100.00
7930;BME280;4010;42.698;23.124;2023-05-11T02:37:46;118349.16;;;-140.64;100.00
7930;BME280;4010;42.698;23.124;2023-05-11T02:40:15;118349.16;;;-140.64;100.00
7930;BME280;4010;42.698;23.124;2023-05-11T02:42:44;118349.16;;;-140.64;100.00
7930;BME280;4010;42.698;23.124;2023-05-11T02:45:13;118349.16;;;-140.64;100.00
7930;BME280;4010;42.698;23.124;2023-05-11T02:47:46;118349.16;;;-140.64;100.00
7930;BME280;4010;42.698;23.124;2023-05-11T02:50:14;118349.16;;;-140.64;100.00
7930;BME280;4010;42.698;23.124;2023-05-11T02:52:46;118349.16;;;-140.64;100.00
7930;BME280;4010;42.698;23.124;2023-05-11T02:55:15;118349.16;;;-140.64;100.00
7930;BME280;4010;42.698;23.124;2023-05-11T02:57:43;118349.16;;;-140.64;100.00
7930;BME280;4010;42.698;23.124;2023-05-11T03:00:10;118349.16;;;-140.64;100.00
7930;BME280;4010;42.698;23.124;2023-05-11T03:02:37;118349.16;;;-140.64;100.00
7930;BME280;4010;42.698;23.124;2023-05-11T03:05:04;118349.16;;;-140.64;100.00
7930;BME280;4010;42.698;23.124;2023-05-11T03:07:32;118349.16;;;-140.64;100.00
7930;BME280;4010;42.698;23.124;2023-05-11T03:10:00;118349.16;;;-140.64;100.00
7930;BME280;4010;42.698;23.124;2023-05-11T03:12:28;118349.16;;;-140.64;100.00
7930;BME280;4010;42.698;23.124;2023-05-11T03:14:57;118349.16;;;-140.64;100.00
7930;BME280;4010;42.698;23.124;2023-05-11T03:17:25;118349.16;;;-140.64;100.00
7930;BME280;4010;42.698;23.124;2023-05-11T03:19:53;118349.16;;;-140.64;100.00
7930;BME280;4010;42.698;23.124;2023-05-11T03:22:21;118349.16;;;-140.64;100.00
7930;BME280;4010;42.698;23.124;2023-05-11T03:24:49;118349.16;;;-140.64;100.00
7930;BME280;4010;42.698;23.124;2023-05-11T03:27:18;118349.16;;;-140.64;100.00
7930;BME280;4010;42.698;23.124;2023-05-11T03:29:46;118349.16;;;-140.64;100.00
7930;BME280;4010;42.698;23.124;2023-05-11T03:32:14;118349.16;;;-140.64;100.00
7930;BME280;4010;42.698;23.124;2023-05-11T03:34:41;118349.16;;;-140.64;100.00
7930;BME280;4010;42.698;23.124;2023-05-11T03:37:09;118349.16;;;-140.64;100.00
7930;BME280;4010;42.698;23.124;2023-05-11T03:39:38;118349.16;;;-140.64;100.00
7930;BME280;4010;42.698;23.124;2023-05-11T03:42:07;118349.16;;;-140.64;100.00
7930;BME280;4010;42.698;23.124;2023-05-11T03:44:36;118349.16;;;-140.64;100.00
7930;BME280;4010;42.698;23.124;2023-05-11T03:47:04;118349.16;;;-140.64;100.00
7930;BME280;4010;42.698;23.124;2023-05-11T03:49:32;118349.16;;;-140.64;100.00
7930;BME280;4010;42.698;23.124;2023-05-11T03:52:02;118349.16;;;-140.64;100.00
7930;BME280;4010;42.698;23.124;2023-05-11T03:54:30;118349.16;;;-140.64;100.00
7930;BME280;4010;42.698;23.124;2023-05-11T03:56:57;118349.16;;;-140.64;100.00
7930;BME280;4010;42.698;23.124;2023-05-11T03:59:24;118349.16;;;-140.64;100.00
7930;BME280;4010;42.698;23.124;2023-05-11T04:01:52;118349.16;;;-140.64;100.00
7930;BME280;4010;42.698;23.124;2023-05-11T04:04:24;118349.16;;;-140.64;100.00
7930;BME280;4010;42.698;23.124;2023-05-11T04:06:53;118349.16;;;-140.64;100.00
7930;BME280;4010;42.698;23.124;2023-05-11T04:09:19;118349.16;;;-140.64;100.00
7930;BME280;4010;42.698;23.124;2023-05-11T04:11:46;118349.16;;;-140.64;100.00
7930;BME280;4010;42.698;23.124;2023-05-11T04:14:13;118349.16;;;-140.64;100.00
7930;BME280;4010;42.698;23.124;2023-05-11T04:16:39;118349.16;;;-140.64;100.00
7930;BME280;4010;42.698;23.124;2023-05-11T04:19:07;118349.16;;;-140.64;100.00
7930;BME280;4010;42.698;23.124;2023-05-11T04:21:34;118349.16;;;-140.64;100.00
7930;BME280;4010;42.698;23.124;2023-05-11T04:24:01;118349.16;;;-140.64;100.00
7930;BME280;4010;42.698;23.124;2023-05-11T04:26:27;118349.16;;;-140.64;100.00
7930;BME280;4010;42.698;23.124;2023-05-11T04:28:54;118349.16;;;-140.64;100.00
7930;BME280;4010;42.698;23.124;2023-05-11T04:31:21;118349.16;;;-140.64;100.00
7930;BME280;4010;42.698;23.124;2023-05-11T04:33:47;118349.16;;;-140.64;100.00
7930;BME280;4010;42.698;23.124;2023-05-11T04:36:15;118349.16;;;-140.64;100.00
7930;BME280;4010;42.698;23.124;2023-05-11T04:38:42;118349.16;;;-140.64;100.00
7930;BME280;4010;42.698;23.124;2023-05-11T04:41:09;118349.16;;;-140.64;100.00
7930;BME280;4010;42.698;23.124;2023-05-11T04:43:36;118349.16;;;-140.64;100.00
7930;BME280;4010;42.698;23.124;2023-05-11T04:46:03;118349.16;;;-140.64;100.00
7930;BME280;4010;42.698;23.124;2023-05-11T04:48:29;118349.16;;;-140.64;100.00
7930;BME280;4010;42.698;23.124;2023-05-11T04:50:56;118349.16;;;-140.64;100.00
7930;BME280;4010;42.698;23.124;2023-05-11T04:53:24;118349.16;;;-140.64;100.00
7930;BME280;4010;42.698;23.124;2023-05-11T04:55:51;118349.16;;;-140.64;100.00
7930;BME280;4010;42.698;23.124;2023-05-11T04:58:18;118349.16;;;-140.64;100.00
7930;BME280;4010;42.698;23.124;2023-05-11T05:00:44;118349.16;;;-140.64;100.00
7930;BME280;4010;42.698;23.124;2023-05-11T05:03:11;118349.16;;;-140.64;100.00
7930;BME280;4010;42.698;23.124;2023-05-11T05:05:38;118349.16;;;-140.64;100.00
7930;BME280;4010;42.698;23.124;2023-05-11T05:08:04;118349.16;;;-140.64;100.00
7930;BME280;4010;42.698;23.124;2023-05-11T05:10:33;118349.16;;;-140.64;100.00
7930;BME280;4010;42.698;23.124;2023-05-11T05:12:59;118349.16;;;-140.64;100.00
7930;BME280;4010;42.698;23.124;2023-05-11T05:15:27;118349.16;;;-140.64;100.00
7930;BME280;4010;42.698;23.124;2023-05-11T05:17:54;118349.16;;;-140.64;100.00
7930;BME280;4010;42.698;23.124;2023-05-11T05:20:20;118349.16;;;-140.64;100.00
7930;BME280;4010;42.698;23.124;2023-05-11T05:22:47;118349.16;;;-140.64;100.00
7930;BME280;4010;42.698;23.124;2023-05-11T05:25:14;118349.16;;;-140.64;100.00
7930;BME280;4010;42.698;23.124;2023-05-11T05:27:42;118349.16;;;-140.64;100.00
7930;BME280;4010;42.698;23.124;2023-05-11T05:30:09;118349.16;;;-140.64;100.00
7930;BME280;4010;42.698;23.124;2023-05-11T05:32:36;118349.16;;;-140.64;100.00
7930;BME280;4010;42.698;23.124;2023-05-11T05:35:03;118349.16;;;-140.64;100.00
7930;BME280;4010;42.698;23.124;2023-05-11T05:37:30;118349.16;;;-140.64;100.00
7930;BME280;4010;42.698;23.124;2023-05-11T05:39:56;118349.16;;;-140.64;100.00
7930;BME280;4010;42.698;23.124;2023-05-11T05:42:23;118349.16;;;-140.64;100.00
7930;BME280;4010;42.698;23.124;2023-05-11T05:44:51;118349.16;;;-140.64;100.00
7930;BME280;4010;42.698;23.124;2023-05-11T05:47:18;118349.16;;;-140.64;100.00
7930;BME280;4010;42.698;23.124;2023-05-11T05:49:44;118349.16;;;-140.64;100.00
7930;BME280;4010;42.698;23.124;2023-05-11T05:52:11;118349.16;;;-140.64;100.00
7930;BME280;4010;42.698;23.124;2023-05-11T05:54:38;118349.16;;;-140.64;100.00
7930;BME280;4010;42.698;23.124;2023-05-11T05:57:04;118349.16;;;-140.64;100.00
7930;BME280;4010;42.698;23.124;2023-05-11T05:59:31;118349.16;;;-140.64;100.00
7930;BME280;4010;42.698;23.124;2023-05-11T06:01:59;118349.16;;;-140.64;100.00
7930;BME280;4010;42.698;23.124;2023-05-11T06:04:26;118349.16;;;-140.64;100.00
7930;BME280;4010;42.698;23.124;2023-05-11T06:06:53;118349.16;;;-140.64;100.00
7930;BME280;4010;42.698;23.124;2023-05-11T06:09:22;118349.16;;;-140.64;100.00
7930;BME280;4010;42.698;23.124;2023-05-11T06:11:49;118349.16;;;-140.64;100.00
7930;BME280;4010;42.698;23.124;2023-05-11T06:14:17;118349.16;;;-140.64;100.00
7930;BME280;4010;42.698;23.124;2023-05-11T06:16:43;118349.16;;;-140.64;100.00
7930;BME280;4010;42.698;23.124;2023-05-11T06:19:11;118349.16;;;-140.64;100.00
7930;BME280;4010;42.698;23.124;2023-05-11T06:21:38;118349.16;;;-140.64;100.00
7930;BME280;4010;42.698;23.124;2023-05-11T06:24:06;118349.16;;;-140.64;100.00
7930;BME280;4010;42.698;23.124;2023-05-11T06:26:32;118349.16;;;-140.64;100.00
7930;BME280;4010;42.698;23.124;2023-05-11T06:29:00;118349.16;;;-140.64;100.00
7930;BME280;4010;42.698;23.124;2023-05-11T06:31:27;118349.16;;;-140.64;100.00
7930;BME280;4010;42.698;23.124;2023-05-11T06:33:54;118349.16;;;-140.64;100.00
7930;BME280;4010;42.698;23.124;2023-05-11T06:36:22;118349.16;;;-140.64;100.00
7930;BME280;4010;42.698;23.124;2023-05-11T06:38:49;118349.16;;;-140.64;100.00
7930;BME280;4010;42.698;23.124;2023-05-11T06:41:15;118349.16;;;-140.64;100.00
7930;BME280;4010;42.698;23.124;2023-05-11T06:43:42;118349.16;;;-140.64;100.00
7930;BME280;4010;42.698;23.124;2023-05-11T06:46:09;118349.16;;;-140.64;100.00
7930;BME280;4010;42.698;23.124;2023-05-11T06:48:40;118349.16;;;-140.64;100.00
7930;BME280;4010;42.698;23.124;2023-05-11T06:51:08;118349.16;;;-140.64;100.00
7930;BME280;4010;42.698;23.124;2023-05-11T06:53:36;118349.16;;;-140.64;100.00
7930;BME280;4010;42.698;23.124;2023-05-11T06:56:04;118349.16;;;-140.64;100.00
7930;BME280;4010;42.698;23.124;2023-05-11T06:58:30;118349.16;;;-140.64;100.00
7930;BME280;4010;42.698;23.124;2023-05-11T07:00:57;118349.16;;;-140.64;100.00
7930;BME280;4010;42.698;23.124;2023-05-11T07:03:24;118349.16;;;-140.64;100.00
7930;BME280;4010;42.698;23.124;2023-05-11T07:05:51;118349.16;;;-140.64;100.00
7930;BME280;4010;42.698;23.124;2023-05-11T07:08:17;118349.16;;;-140.64;100.00
7930;BME280;4010;42.698;23.124;2023-05-11T07:10:46;118349.16;;;-140.64;100.00
7930;BME280;4010;42.698;23.124;2023-05-11T07:13:12;118349.16;;;-140.64;100.00
7930;BME280;4010;42.698;23.124;2023-05-11T07:15:39;118349.16;;;-140.64;98.84
7930;BME280;4010;42.698;23.124;2023-05-11T07:18:05;118349.16;;;-140.64;99.57
7930;BME280;4010;42.698;23.124;2023-05-11T07:20:32;118349.16;;;-140.64;99.08
7930;BME280;4010;42.698;23.124;2023-05-11T07:23:00;118349.16;;;-140.64;100.00
7930;BME280;4010;42.698;23.124;2023-05-11T07:25:27;118349.16;;;-140.64;100.00
7930;BME280;4010;42.698;23.124;2023-05-11T07:27:56;118349.16;;;-140.64;98.20
7930;BME280;4010;42.698;23.124;2023-05-11T07:30:23;118349.16;;;-140.64;98.04
7930;BME280;4010;42.698;23.124;2023-05-11T07:32:50;118349.16;;;-140.64;99.57
7930;BME280;4010;42.698;23.124;2023-05-11T07:35:16;118349.16;;;-140.64;97.42
7930;BME280;4010;42.698;23.124;2023-05-11T07:37:43;118349.16;;;-140.64;97.56
7930;BME280;4010;42.698;23.124;2023-05-11T07:40:10;118349.16;;;-140.64;98.42
7930;BME280;4010;42.698;23.124;2023-05-11T07:42:37;118349.16;;;-140.64;99.13
7930;BME280;4010;42.698;23.124;2023-05-11T07:45:06;118349.16;;;-140.64;97.92
7930;BME280;4010;42.698;23.124;2023-05-11T07:47:33;118349.16;;;-140.64;99.01
7930;BME280;4010;42.698;23.124;2023-05-11T07:50:00;118349.16;;;-140.64;99.74
7930;BME280;4010;42.698;23.124;2023-05-11T07:52:26;118349.16;;;-140.64;100.00
7930;BME280;4010;42.698;23.124;2023-05-11T07:54:53;118349.16;;;-140.64;98.66
7930;BME280;4010;42.698;23.124;2023-05-11T07:57:20;118349.16;;;-140.64;98.16
7930;BME280;4010;42.698;23.124;2023-05-11T07:59:47;118349.16;;;-140.64;96.56
7930;BME280;4010;42.698;23.124;2023-05-11T08:02:15;118349.16;;;-140.64;95.10
7930;BME280;4010;42.698;23.124;2023-05-11T08:04:43;118349.16;;;-140.64;96.18
7930;BME280;4010;42.698;23.124;2023-05-11T08:07:09;118349.16;;;-140.64;93.52
7930;BME280;4010;42.698;23.124;2023-05-11T08:09:36;118349.16;;;-140.64;92.44
7930;BME280;4010;42.698;23.124;2023-05-11T08:12:03;118349.16;;;-140.64;93.51
7930;BME280;4010;42.698;23.124;2023-05-11T08:14:29;118349.16;;;-140.64;91.19
7930;BME280;4010;42.698;23.124;2023-05-11T08:16:56;118349.16;;;-140.64;93.69
7930;BME280;4010;42.698;23.124;2023-05-11T08:19:24;118349.16;;;-140.64;92.67
7930;BME280;4010;42.698;23.124;2023-05-11T08:21:51;118349.16;;;-140.64;93.50
7930;BME280;4010;42.698;23.124;2023-05-11T08:24:18;118349.16;;;-140.64;92.71
7930;BME280;4010;42.698;23.124;2023-05-11T08:26:45;118349.16;;;-140.64;92.17
7930;BME280;4010;42.698;23.124;2023-05-11T08:29:11;118349.16;;;-140.64;92.30
7930;BME280;4010;42.698;23.124;2023-05-11T08:31:38;118349.16;;;-140.64;91.59
7930;BME280;4010;42.698;23.124;2023-05-11T08:34:05;118349.16;;;-140.64;92.63
7930;BME280;4010;42.698;23.124;2023-05-11T08:36:34;118349.16;;;-140.64;92.95
7930;BME280;4010;42.698;23.124;2023-05-11T08:39:00;118349.16;;;-140.64;92.25
7930;BME280;4010;42.698;23.124;2023-05-11T08:41:27;118349.16;;;-140.64;91.45
7930;BME280;4010;42.698;23.124;2023-05-11T08:43:54;118349.16;;;-140.64;93.00
7930;BME280;4010;42.698;23.124;2023-05-11T08:46:23;118349.16;;;-140.64;92.32
7930;BME280;4010;42.698;23.124;2023-05-11T08:48:51;118349.16;;;-140.64;91.60
7930;BME280;4010;42.698;23.124;2023-05-11T08:51:18;118349.16;;;-140.64;91.89
7930;BME280;4010;42.698;23.124;2023-05-11T08:53:46;118349.16;;;-140.64;90.48
7930;BME280;4010;42.698;23.124;2023-05-11T08:56:14;118349.16;;;-140.64;92.12
7930;BME280;4010;42.698;23.124;2023-05-11T08:58:41;118349.16;;;-140.64;90.51
7930;BME280;4010;42.698;23.124;2023-05-11T09:01:09;118349.16;;;-140.64;89.83
7930;BME280;4010;42.698;23.124;2023-05-11T09:03:38;118349.16;;;-140.64;89.76
7930;BME280;4010;42.698;23.124;2023-05-11T09:06:06;118349.16;;;-140.64;88.14
7930;BME280;4010;42.698;23.124;2023-05-11T09:08:34;118349.16;;;-140.64;88.46
7930;BME280;4010;42.698;23.124;2023-05-11T09:11:04;118349.16;;;-140.64;90.26
7930;BME280;4010;42.698;23.124;2023-05-11T09:13:31;118349.16;;;-140.64;85.84
7930;BME280;4010;42.698;23.124;2023-05-11T09:15:58;118349.16;;;-140.64;84.04
7930;BME280;4010;42.698;23.124;2023-05-11T09:18:25;118349.16;;;-140.64;84.10
7930;BME280;4010;42.698;23.124;2023-05-11T09:20:52;118349.16;;;-140.64;82.66
7930;BME280;4010;42.698;23.124;2023-05-11T09:23:23;118349.16;;;-140.64;84.71
7930;BME280;4010;42.698;23.124;2023-05-11T09:25:50;118349.16;;;-140.64;85.28
7930;BME280;4010;42.698;23.124;2023-05-11T09:28:21;118349.16;;;-140.64;83.69
7930;BME280;4010;42.698;23.124;2023-05-11T09:30:47;118349.16;;;-140.64;84.98
7930;BME280;4010;42.698;23.124;2023-05-11T09:33:20;118349.16;;;-140.64;85.79
7930;BME280;4010;42.698;23.124;2023-05-11T09:35:48;118349.16;;;-140.64;84.69
7930;BME280;4010;42.698;23.124;2023-05-11T09:38:15;118349.16;;;-140.64;87.01
7930;BME280;4010;42.698;23.124;2023-05-11T09:40:49;118349.16;;;-140.64;87.17
7930;BME280;4010;42.698;23.124;2023-05-11T09:43:18;118349.16;;;-140.64;84.63
7930;BME280;4010;42.698;23.124;2023-05-11T09:45:47;118349.16;;;-140.64;83.52
7930;BME280;4010;42.698;23.124;2023-05-11T09:48:28;118349.16;;;-140.64;83.92
7930;BME280;4010;42.698;23.124;2023-05-11T09:51:01;118349.16;;;-140.64;82.58
7930;BME280;4010;42.698;23.124;2023-05-11T09:53:39;118349.16;;;-140.64;81.01
7930;BME280;4010;42.698;23.124;2023-05-11T09:56:07;118349.16;;;-140.64;81.81
7930;BME280;4010;42.698;23.124;2023-05-11T09:58:48;118349.16;;;-140.64;81.52
7930;BME280;4010;42.698;23.124;2023-05-11T10:01:26;118349.16;;;-140.64;83.02
7930;BME280;4010;42.698;23.124;2023-05-11T10:03:54;118349.16;;;-140.64;80.49
7930;BME280;4010;42.698;23.124;2023-05-11T10:06:21;118349.16;;;-140.64;79.82
7930;BME280;4010;42.698;23.124;2023-05-11T10:08:47;118349.16;;;-140.64;81.81
7930;BME280;4010;42.698;23.124;2023-05-11T10:11:14;118349.16;;;-140.64;79.94
7930;BME280;4010;42.698;23.124;2023-05-11T10:13:42;118349.16;;;-140.64;81.68
7930;BME280;4010;42.698;23.124;2023-05-11T10:16:11;118349.16;;;-140.64;82.39
7930;BME280;4010;42.698;23.124;2023-05-11T10:18:39;118349.16;;;-140.64;79.90
7930;BME280;4010;42.698;23.124;2023-05-11T10:21:08;118349.16;;;-140.64;79.13
7930;BME280;4010;42.698;23.124;2023-05-11T10:23:35;118349.16;;;-140.64;81.33
7930;BME280;4010;42.698;23.124;2023-05-11T10:26:03;118349.16;;;-140.64;79.39
7930;BME280;4010;42.698;23.124;2023-05-11T10:28:30;118349.16;;;-140.64;77.86
7930;BME280;4010;42.698;23.124;2023-05-11T10:30:57;118349.16;;;-140.64;77.88
7930;BME280;4010;42.698;23.124;2023-05-11T10:33:24;118349.16;;;-140.64;78.94
7930;BME280;4010;42.698;23.124;2023-05-11T10:35:53;118349.16;;;-140.64;79.71
7930;BME280;4010;42.698;23.124;2023-05-11T10:38:20;118349.16;;;-140.64;77.91
7930;BME280;4010;42.698;23.124;2023-05-11T10:40:50;118349.16;;;-140.64;79.76
7930;BME280;4010;42.698;23.124;2023-05-11T10:46:36;118349.16;;;-140.64;80.02
7930;BME280;4010;42.698;23.124;2023-05-11T10:49:22;118349.16;;;-140.64;78.12
7930;BME280;4010;42.698;23.124;2023-05-11T10:52:10;118349.16;;;-140.64;78.20
7930;BME280;4010;42.698;23.124;2023-05-11T10:54:48;118349.16;;;-140.64;77.02
7930;BME280;4010;42.698;23.124;2023-05-11T10:57:35;118349.16;;;-140.64;77.93
7930;BME280;4010;42.698;23.124;2023-05-11T11:00:15;118349.16;;;-140.64;79.31
7930;BME280;4010;42.698;23.124;2023-05-11T11:02:55;118349.16;;;-140.64;79.06
7930;BME280;4010;42.698;23.124;2023-05-11T11:05:32;118349.16;;;-140.64;81.09
7930;BME280;4010;42.698;23.124;2023-05-11T11:08:01;118349.16;;;-140.64;81.37
7930;BME280;4010;42.698;23.124;2023-05-11T11:10:29;118349.16;;;-140.64;77.19
7930;BME280;4010;42.698;23.124;2023-05-11T11:13:04;118349.16;;;-140.64;78.92
7930;BME280;4010;42.698;23.124;2023-05-11T11:16:08;118349.16;;;-140.64;77.80
7930;BME280;4010;42.698;23.124;2023-05-11T11:18:35;118349.16;;;-140.64;75.84
7930;BME280;4010;42.698;23.124;2023-05-11T11:21:02;118349.16;;;-140.64;77.43
7930;BME280;4010;42.698;23.124;2023-05-11T11:23:44;118349.16;;;-140.64;77.47
7930;BME280;4010;42.698;23.124;2023-05-11T11:26:14;118349.16;;;-140.64;79.18
7930;BME280;4010;42.698;23.124;2023-05-11T11:29:08;118349.16;;;-140.64;77.93
7930;BME280;4010;42.698;23.124;2023-05-11T11:31:36;118349.16;;;-140.64;80.52
7930;BME280;4010;42.698;23.124;2023-05-11T11:34:31;118349.16;;;-140.64;83.88
7930;BME280;4010;42.698;23.124;2023-05-11T11:37:04;118349.16;;;-140.64;78.09
7930;BME280;4010;42.698;23.124;2023-05-11T11:39:51;118349.16;;;-140.64;79.64
7930;BME280;4010;42.698;23.124;2023-05-11T11:42:36;118349.16;;;-140.64;79.49
7930;BME280;4010;42.698;23.124;2023-05-11T11:45:33;118349.16;;;-140.64;78.11
7930;BME280;4010;42.698;23.124;2023-05-11T11:48:12;118349.16;;;-140.64;77.65
7930;BME280;4010;42.698;23.124;2023-05-11T11:50:45;118349.16;;;-140.64;76.10
7930;BME280;4010;42.698;23.124;2023-05-11T11:56:38;118349.16;;;-140.64;77.11
7930;BME280;4010;42.698;23.124;2023-05-11T11:59:06;118349.16;;;-140.64;78.02
7930;BME280;4010;42.698;23.124;2023-05-11T12:01:38;118349.16;;;-140.64;80.17
7930;BME280;4010;42.698;23.124;2023-05-11T12:07:19;118349.16;;;-140.64;75.77
7930;BME280;4010;42.698;23.124;2023-05-11T12:09:47;118349.16;;;-140.64;77.72
7930;BME280;4010;42.698;23.124;2023-05-11T12:12:18;118349.16;;;-140.64;78.50
7930;BME280;4010;42.698;23.124;2023-05-11T12:14:45;118349.16;;;-140.64;78.32
7930;BME280;4010;42.698;23.124;2023-05-11T12:17:17;118349.16;;;-140.64;77.30
7930;BME280;4010;42.698;23.124;2023-05-11T12:19:48;118349.16;;;-140.64;77.54
7930;BME280;4010;42.698;23.124;2023-05-11T12:22:21;118349.16;;;-140.64;78.88
7930;BME280;4010;42.698;23.124;2023-05-11T12:24:47;118349.16;;;-140.64;77.86
7930;BME280;4010;42.698;23.124;2023-05-11T12:27:17;118349.16;;;-140.64;78.17
7930;BME280;4010;42.698;23.124;2023-05-11T12:29:47;118349.16;;;-140.64;80.48
7930;BME280;4010;42.698;23.124;2023-05-11T12:32:14;118349.16;;;-140.64;80.42
7930;BME280;4010;42.698;23.124;2023-05-11T12:34:41;118349.16;;;-140.64;79.97
7930;BME280;4010;42.698;23.124;2023-05-11T12:37:07;118349.16;;;-140.64;80.56
7930;BME280;4010;42.698;23.124;2023-05-11T12:39:34;118349.16;;;-140.64;80.54
7930;BME280;4010;42.698;23.124;2023-05-11T12:42:01;118349.16;;;-140.64;81.15
7930;BME280;4010;42.698;23.124;2023-05-11T12:44:30;118349.16;;;-140.64;78.43
7930;BME280;4010;42.698;23.124;2023-05-11T12:46:57;118349.16;;;-140.64;78.76
7930;BME280;4010;42.698;23.124;2023-05-11T12:49:24;118349.16;;;-140.64;80.15
7930;BME280;4010;42.698;23.124;2023-05-11T12:52:00;118349.16;;;-140.64;81.88